createdAt,value
2019-05-26T00:00:32.248Z,96589.77
2019-05-26T00:03:04.111Z,96585.82
2019-05-26T00:05:35.886Z,96581.22
2019-05-26T00:08:07.677Z,96589.28
2019-05-26T00:10:39.523Z,96582.38
2019-05-26T00:13:11.375Z,96582.86
2019-05-26T00:15:43.158Z,96583.22
2019-05-26T00:18:14.982Z,96583.85
2019-05-26T00:20:47.821Z,96587.50
2019-05-26T00:23:19.607Z,96581.53
2019-05-26T00:25:51.384Z,96580.87
2019-05-26T00:28:23.158Z,96581.85
2019-05-26T00:30:54.932Z,96569.35
2019-05-26T00:33:26.714Z,96575.45
2019-05-26T00:35:58.480Z,96562.28
2019-05-26T00:38:30.256Z,96559.66
2019-05-26T00:41:02.097Z,96554.88
2019-05-26T00:43:33.884Z,96554.38
2019-05-26T00:46:06.094Z,96557.20
2019-05-26T00:48:37.873Z,96556.85
2019-05-26T00:51:09.649Z,96555.84
2019-05-26T00:53:41.731Z,96548.45
2019-05-26T00:56:13.492Z,96553.20
2019-05-26T00:58:45.277Z,96559.28
2019-05-26T01:01:18.187Z,96557.12
2019-05-26T01:03:49.958Z,96558.77
2019-05-26T01:06:21.726Z,96563.02
2019-05-26T01:08:53.635Z,96564.03
2019-05-26T01:11:25.405Z,96569.63
2019-05-26T01:13:58.153Z,96566.97
2019-05-26T01:16:30.892Z,96574.06
2019-05-26T01:19:09.068Z,96569.78
2019-05-26T01:21:40.832Z,96565.34
2019-05-26T01:24:12.603Z,96567.30
2019-05-26T01:26:44.434Z,96573.48
2019-05-26T01:29:16.205Z,96568.80
2019-05-26T01:31:47.968Z,96562.58
2019-05-26T01:34:19.749Z,96566.17
2019-05-26T01:36:51.692Z,96563.85
2019-05-26T01:39:23.525Z,96566.13
2019-05-26T01:41:55.288Z,96565.16
2019-05-26T01:44:27.066Z,96564.00
2019-05-26T01:46:58.832Z,96567.10
2019-05-26T01:49:30.609Z,96573.47
2019-05-26T01:52:02.372Z,96564.72
2019-05-26T01:54:35.214Z,96572.30
2019-05-26T01:57:08.052Z,96575.41
2019-05-26T01:59:40.297Z,96578.20
2019-05-26T02:02:13.136Z,96579.98
2019-05-26T02:04:44.921Z,96584.13
2019-05-26T02:07:16.676Z,96584.80
2019-05-26T02:09:48.462Z,96584.42
2019-05-26T02:12:20.223Z,96582.18
2019-05-26T02:14:52.014Z,96578.53
2019-05-26T02:17:23.782Z,96573.23
2019-05-26T02:19:55.630Z,96568.44
2019-05-26T02:22:27.390Z,96575.73
2019-05-26T02:24:59.157Z,96572.02
2019-05-26T02:27:31.885Z,96561.94
2019-05-26T02:30:04.126Z,96564.33
2019-05-26T02:32:36.138Z,96569.23
2019-05-26T02:35:10.311Z,96568.22
2019-05-26T02:37:42.307Z,96568.48
2019-05-26T02:40:15.004Z,96564.55
2019-05-26T02:42:46.760Z,96566.03
2019-05-26T02:45:20.603Z,96561.92
2019-05-26T02:47:52.443Z,96557.77
2019-05-26T02:50:24.907Z,96559.26
2019-05-26T02:52:56.667Z,96564.65
2019-05-26T02:55:28.427Z,96563.80
2019-05-26T02:58:00.189Z,96565.30
2019-05-26T03:00:41.937Z,96567.72
2019-05-26T03:03:15.980Z,96569.83
2019-05-26T03:05:47.812Z,96568.03
2019-05-26T03:08:19.568Z,96573.14
2019-05-26T03:10:52.671Z,96573.56
2019-05-26T03:13:24.423Z,96572.42
2019-05-26T03:15:59.100Z,96572.00
2019-05-26T03:18:33.396Z,96579.72
2019-05-26T03:21:05.303Z,96571.71
2019-05-26T03:23:37.134Z,96564.81
2019-05-26T03:26:10.703Z,96567.00
2019-05-26T03:28:42.551Z,96564.78
2019-05-26T03:31:14.386Z,96566.36
2019-05-26T03:33:46.157Z,96577.81
2019-05-26T03:36:17.913Z,96578.32
2019-05-26T03:38:49.676Z,96580.59
2019-05-26T03:41:21.453Z,96581.63
2019-05-26T03:43:53.218Z,96579.63
2019-05-26T03:46:24.971Z,96581.59
2019-05-26T03:48:56.724Z,96582.56
2019-05-26T03:51:28.496Z,96580.29
2019-05-26T03:54:00.241Z,96580.71
2019-05-26T03:56:32.070Z,96581.51
2019-05-26T03:59:03.831Z,96579.86
2019-05-26T04:01:36.573Z,96577.44
2019-05-26T04:04:08.319Z,96586.61
2019-05-26T04:06:40.082Z,96585.70
2019-05-26T04:09:11.835Z,96586.04
2019-05-26T04:11:43.601Z,96585.70
2019-05-26T04:14:15.690Z,96587.59
2019-05-26T04:16:47.446Z,96587.02
2019-05-26T04:19:19.204Z,96586.05
2019-05-26T04:21:51.255Z,96590.02
2019-05-26T04:24:23.015Z,96590.22
2019-05-26T04:26:54.791Z,96586.37
2019-05-26T04:29:26.540Z,96594.55
2019-05-26T04:32:01.851Z,96593.20
2019-05-26T04:34:31.820Z,96602.63
2019-05-26T04:37:03.531Z,96602.03
2019-05-26T04:39:35.287Z,96599.13
2019-05-26T04:42:08.209Z,96595.08
2019-05-26T04:44:39.964Z,96596.95
2019-05-26T04:47:11.729Z,96600.63
2019-05-26T04:49:43.493Z,96596.42
2019-05-26T04:52:15.340Z,96597.41
2019-05-26T04:54:47.109Z,96600.31
2019-05-26T04:57:18.880Z,96602.81
2019-05-26T04:59:50.639Z,96604.16
2019-05-26T05:02:22.406Z,96603.43
2019-05-26T05:04:54.155Z,96608.25
2019-05-26T05:07:28.564Z,96610.61
2019-05-26T05:09:59.632Z,96614.41
2019-05-26T05:12:31.674Z,96617.25
2019-05-26T05:15:05.277Z,96622.23
2019-05-26T05:17:37.083Z,96623.45
2019-05-26T05:20:10.053Z,96622.67
2019-05-26T05:22:41.818Z,96623.22
2019-05-26T05:25:15.265Z,96627.88
2019-05-26T05:27:47.934Z,96624.13
2019-05-26T05:30:20.709Z,96631.72
2019-05-26T05:32:52.481Z,96625.00
2019-05-26T05:35:24.244Z,96622.25
2019-05-26T05:37:56.020Z,96620.31
2019-05-26T05:40:28.819Z,96623.64
2019-05-26T05:43:00.615Z,96618.39
2019-05-26T05:45:32.395Z,96617.56
2019-05-26T05:48:05.148Z,96616.78
2019-05-26T05:50:39.354Z,96614.63
2019-05-26T05:53:11.055Z,96617.75
2019-05-26T05:55:42.835Z,96616.41
2019-05-26T05:58:14.628Z,96616.75
2019-05-26T06:00:47.047Z,96617.73
2019-05-26T06:03:19.814Z,96619.35
2019-05-26T06:05:51.894Z,96620.97
2019-05-26T06:08:23.681Z,96612.53
2019-05-26T06:10:55.463Z,96622.54
2019-05-26T06:13:27.264Z,96621.50
2019-05-26T06:15:59.062Z,96615.23
2019-05-26T06:18:30.848Z,96617.33
2019-05-26T06:21:02.635Z,96616.44
2019-05-26T06:23:36.928Z,96619.63
2019-05-26T06:26:09.075Z,96621.89
2019-05-26T06:28:41.102Z,96621.14
2019-05-26T06:31:12.893Z,96618.45
2019-05-26T06:33:44.766Z,96616.76
2019-05-26T06:36:16.546Z,96622.88
2019-05-26T06:38:48.349Z,96622.94
2019-05-26T06:41:32.994Z,96617.64
2019-05-26T06:43:54.269Z,96610.05
2019-05-26T06:46:26.053Z,96610.63
2019-05-26T06:49:00.706Z,96616.43
2019-05-26T06:51:32.547Z,96618.11
2019-05-26T06:54:04.407Z,96619.03
2019-05-26T06:56:36.200Z,96615.87
2019-05-26T06:59:07.996Z,96623.39
2019-05-26T07:01:39.778Z,96618.72
2019-05-26T07:04:11.577Z,96618.45
2019-05-26T07:06:43.366Z,96620.80
2019-05-26T07:09:15.160Z,96617.50
2019-05-26T07:11:55.631Z,96621.05
2019-05-26T07:14:20.432Z,96620.09
2019-05-26T07:16:52.282Z,96619.28
2019-05-26T07:19:24.083Z,96621.89
2019-05-26T07:21:55.864Z,96620.12
2019-05-26T07:24:29.412Z,96633.48
2019-05-26T07:27:01.138Z,96625.86
2019-05-26T07:29:32.938Z,96629.16
2019-05-26T07:32:05.594Z,96633.70
2019-05-26T07:34:37.392Z,96623.02
2019-05-26T07:37:09.171Z,96620.50
2019-05-26T07:39:40.970Z,96618.23
2019-05-26T07:42:12.756Z,96622.02
2019-05-26T07:44:44.550Z,96614.39
2019-05-26T07:47:16.338Z,96615.66
2019-05-26T07:49:48.136Z,96615.33
2019-05-26T07:52:20.014Z,96615.88
2019-05-26T07:54:52.241Z,96619.30
2019-05-26T07:57:24.026Z,96607.83
2019-05-26T07:59:55.832Z,96608.52
2019-05-26T08:02:27.619Z,96608.73
2019-05-26T08:04:59.436Z,96610.97
2019-05-26T08:07:31.203Z,96606.66
2019-05-26T08:10:03.156Z,96600.42
2019-05-26T08:12:34.949Z,96601.41
2019-05-26T08:15:07.782Z,96604.88
2019-05-26T08:17:39.592Z,96607.38
2019-05-26T08:20:12.620Z,96606.93
2019-05-26T08:22:44.471Z,96603.88
2019-05-26T08:25:16.852Z,96599.31
2019-05-26T08:27:48.704Z,96599.80
2019-05-26T08:30:20.736Z,96595.88
2019-05-26T08:32:52.991Z,96597.48
2019-05-26T08:35:24.933Z,96595.20
2019-05-26T08:37:57.180Z,96597.95
2019-05-26T08:40:28.973Z,96596.41
2019-05-26T08:43:01.201Z,96597.67
2019-05-26T08:45:32.983Z,96601.68
2019-05-26T08:48:05.105Z,96599.31
2019-05-26T08:50:36.889Z,96603.20
2019-05-26T08:53:08.673Z,96596.43
2019-05-26T08:55:40.470Z,96596.45
2019-05-26T08:58:12.252Z,96597.70
2019-05-26T09:00:44.059Z,96596.39
2019-05-26T09:03:15.860Z,96596.17
2019-05-26T09:05:47.942Z,96593.16
2019-05-26T09:08:19.725Z,96596.87
2019-05-26T09:10:51.521Z,96593.16
2019-05-26T09:13:23.300Z,96586.80
2019-05-26T09:15:55.089Z,96591.09
2019-05-26T09:18:26.940Z,96590.66
2019-05-26T09:21:00.377Z,96594.73
2019-05-26T09:23:32.152Z,96598.19
2019-05-26T09:26:04.015Z,96592.30
2019-05-26T09:28:35.792Z,96592.72
2019-05-26T09:31:07.583Z,96588.74
2019-05-26T09:33:39.436Z,96592.42
2019-05-26T09:36:11.227Z,96589.81
2019-05-26T09:38:43.001Z,96590.97
2019-05-26T09:41:14.794Z,96584.94
2019-05-26T09:43:46.543Z,96580.20
2019-05-26T09:46:18.633Z,96576.70
2019-05-26T09:48:50.406Z,96571.66
2019-05-26T09:51:23.162Z,96571.16
2019-05-26T09:54:01.607Z,96567.30
2019-05-26T09:56:28.403Z,96565.75
2019-05-26T09:59:00.180Z,96558.20
2019-05-26T10:01:31.958Z,96558.78
2019-05-26T10:04:03.724Z,96564.33
2019-05-26T10:06:35.778Z,96559.72
2019-05-26T10:09:08.977Z,96556.95
2019-05-26T10:11:40.837Z,96558.80
2019-05-26T10:14:12.604Z,96555.39
2019-05-26T10:16:44.376Z,96550.08
2019-05-26T10:19:16.139Z,96547.74
2019-05-26T10:21:47.923Z,96548.18
2019-05-26T10:24:20.032Z,96550.84
2019-05-26T10:26:51.809Z,96544.89
2019-05-26T10:29:23.585Z,96544.03
2019-05-26T10:31:55.376Z,96545.81
2019-05-26T10:34:27.419Z,96538.53
2019-05-26T10:36:59.205Z,96543.13
2019-05-26T10:39:30.979Z,96543.87
2019-05-26T10:42:02.757Z,96541.95
2019-05-26T10:44:34.533Z,96539.96
2019-05-26T10:47:06.318Z,96537.42
2019-05-26T10:49:38.446Z,96536.98
2019-05-26T10:52:10.804Z,96540.09
2019-05-26T10:54:42.563Z,96532.77
2019-05-26T10:57:14.340Z,96534.64
2019-05-26T10:59:46.115Z,96531.72
2019-05-26T11:02:17.899Z,96537.66
2019-05-26T11:04:49.757Z,96534.30
2019-05-26T11:07:21.534Z,96534.09
2019-05-26T11:09:53.311Z,96531.42
2019-05-26T11:12:25.085Z,96533.81
2019-05-26T11:14:56.848Z,96527.63
2019-05-26T11:17:28.631Z,96526.39
2019-05-26T11:20:00.403Z,96520.81
2019-05-26T11:22:32.174Z,96517.03
2019-05-26T11:25:05.950Z,96521.47
2019-05-26T11:27:38.712Z,96519.84
2019-05-26T11:30:14.443Z,96517.38
2019-05-26T11:32:46.217Z,96511.52
2019-05-26T11:35:19.592Z,96510.70
2019-05-26T11:37:51.364Z,96509.53
2019-05-26T11:40:23.268Z,96499.92
2019-05-26T11:42:55.049Z,96492.94
2019-05-26T11:45:26.816Z,96487.93
2019-05-26T11:47:58.587Z,96493.69
2019-05-26T11:50:30.355Z,96484.14
2019-05-26T11:53:02.128Z,96481.98
2019-05-26T11:55:33.895Z,96479.84
2019-05-26T11:58:05.816Z,96475.84
2019-05-26T12:00:37.928Z,96474.49
2019-05-26T12:03:10.944Z,96468.58
2019-05-26T12:05:42.712Z,96471.61
2019-05-26T12:08:14.490Z,96473.30
2019-05-26T12:10:46.251Z,96465.77
2019-05-26T12:13:18.036Z,96464.35
2019-05-26T12:15:49.822Z,96463.09
2019-05-26T12:18:21.588Z,96462.20
2019-05-26T12:20:53.355Z,96456.11
2019-05-26T12:23:25.132Z,96448.20
2019-05-26T12:25:56.901Z,96445.01
2019-05-26T12:28:28.687Z,96445.05
2019-05-26T12:31:00.468Z,96438.88
2019-05-26T12:33:32.245Z,96443.24
2019-05-26T12:36:04.620Z,96446.12
2019-05-26T12:38:38.037Z,96439.43
2019-05-26T12:41:09.977Z,96435.02
2019-05-26T12:43:42.665Z,96430.15
2019-05-26T12:46:14.811Z,96420.47
2019-05-26T12:48:46.771Z,96426.70
2019-05-26T12:51:18.614Z,96424.30
2019-05-26T12:53:50.391Z,96426.50
2019-05-26T12:56:22.161Z,96418.55
2019-05-26T12:58:53.935Z,96423.66
2019-05-26T13:01:25.870Z,96416.94
2019-05-26T13:03:57.644Z,96412.38
2019-05-26T13:06:29.407Z,96416.59
2019-05-26T13:09:01.190Z,96414.72
2019-05-26T13:11:34.323Z,96404.13
2019-05-26T13:14:06.357Z,96408.80
2019-05-26T13:16:39.185Z,96408.84
2019-05-26T13:19:11.239Z,96406.41
2019-05-26T13:21:43.086Z,96402.66
2019-05-26T13:24:14.862Z,96406.59
2019-05-26T13:26:46.644Z,96391.76
2019-05-26T13:29:18.421Z,96393.60
2019-05-26T13:31:50.186Z,96389.09
2019-05-26T13:34:22.055Z,96381.05
2019-05-26T13:36:53.794Z,96385.88
2019-05-26T13:39:26.477Z,96375.00
2019-05-26T13:41:58.258Z,96379.08
2019-05-26T13:44:30.572Z,96375.20
2019-05-26T13:47:02.338Z,96375.50
2019-05-26T13:49:34.134Z,96376.34
2019-05-26T13:52:05.980Z,96368.59
2019-05-26T13:54:37.741Z,96377.81
2019-05-26T13:57:11.011Z,96363.58
2019-05-26T13:59:42.792Z,96373.95
2019-05-26T14:02:14.563Z,96366.37
2019-05-26T14:04:46.348Z,96363.27
2019-05-26T14:07:18.116Z,96368.19
2019-05-26T14:09:49.894Z,96361.11
2019-05-26T14:12:21.650Z,96360.77
2019-05-26T14:14:54.396Z,96362.34
2019-05-26T14:17:27.419Z,96363.92
2019-05-26T14:20:01.585Z,96358.55
2019-05-26T14:22:33.359Z,96367.38
2019-05-26T14:25:07.443Z,96366.79
2019-05-26T14:27:39.207Z,96358.50
2019-05-26T14:30:11.318Z,96357.83
2019-05-26T14:32:43.086Z,96357.13
2019-05-26T14:35:14.941Z,96347.48
2019-05-26T14:37:46.701Z,96354.09
2019-05-26T14:40:18.640Z,96354.30
2019-05-26T14:42:50.844Z,96351.13
2019-05-26T14:45:22.958Z,96353.53
2019-05-26T14:47:55.769Z,96343.43
2019-05-26T14:50:27.688Z,96347.09
2019-05-26T14:52:59.454Z,96342.61
2019-05-26T14:55:31.237Z,96345.32
2019-05-26T14:58:15.195Z,96336.50
2019-05-26T15:00:36.490Z,96344.16
2019-05-26T15:03:08.256Z,96350.83
2019-05-26T15:05:40.023Z,96340.17
2019-05-26T15:08:11.785Z,96347.41
2019-05-26T15:10:43.560Z,96335.05
2019-05-26T15:13:15.359Z,96330.34
2019-05-26T15:15:47.117Z,96335.03
2019-05-26T15:18:19.861Z,96332.98
2019-05-26T15:20:51.648Z,96337.43
2019-05-26T15:23:23.408Z,96334.47
2019-05-26T15:25:56.152Z,96331.77
2019-05-26T15:28:27.922Z,96335.81
2019-05-26T15:30:59.705Z,96336.50
2019-05-26T15:33:32.447Z,96328.69
2019-05-26T15:36:04.249Z,96338.30
2019-05-26T15:38:42.931Z,96333.94
2019-05-26T15:41:09.481Z,96332.77
2019-05-26T15:43:41.255Z,96335.22
2019-05-26T15:46:24.710Z,96324.66
2019-05-26T15:48:47.461Z,96324.78
2019-05-26T16:31:16.649Z,96296.97
2019-05-26T16:33:48.403Z,96294.91
2019-05-26T16:36:21.469Z,96299.55
2019-05-26T16:38:53.432Z,96301.82
2019-05-26T16:41:25.206Z,96302.13
2019-05-26T16:43:56.981Z,96302.70
2019-05-26T16:46:28.764Z,96301.17
2019-05-26T16:49:00.534Z,96303.46
2019-05-26T16:51:32.328Z,96301.86
2019-05-26T16:54:05.706Z,96299.34
2019-05-26T16:56:37.476Z,96295.11
2019-05-26T16:59:09.244Z,96306.38
2019-05-26T17:01:41.023Z,96297.09
2019-05-26T17:04:12.791Z,96289.78
2019-05-26T17:06:44.570Z,96292.52
2019-05-26T17:09:16.355Z,96289.37
2019-05-26T17:11:48.130Z,96296.48
2019-05-26T17:14:19.898Z,96286.29
2019-05-26T17:16:51.687Z,96285.09
2019-05-26T17:19:23.447Z,96290.14
2019-05-26T17:21:55.313Z,96286.01
2019-05-26T17:24:27.079Z,96288.59
2019-05-26T17:26:58.858Z,96276.91
2019-05-26T17:29:30.627Z,96293.36
2019-05-26T17:32:02.401Z,96284.94
2019-05-26T17:34:34.176Z,96280.34
2019-05-26T17:37:05.947Z,96279.34
2019-05-26T17:39:37.713Z,96283.17
2019-05-26T17:42:10.899Z,96281.34
2019-05-26T17:44:43.716Z,96274.13
2019-05-26T17:47:29.181Z,96281.93
2019-05-26T17:49:49.032Z,96278.66
2019-05-26T17:52:20.880Z,96278.16
2019-05-26T17:54:52.671Z,96276.53
2019-05-26T17:57:24.423Z,96274.73
2019-05-26T17:59:56.269Z,96269.28
2019-05-26T18:02:28.284Z,96280.11
2019-05-26T18:05:01.021Z,96280.52
2019-05-26T18:07:32.936Z,96277.77
2019-05-26T18:10:07.483Z,96272.22
2019-05-26T18:12:39.266Z,96270.97
2019-05-26T18:15:11.733Z,96271.91
2019-05-26T18:17:47.332Z,96271.91
2019-05-26T18:20:17.115Z,96269.07
2019-05-26T18:22:48.971Z,96269.82
2019-05-26T18:25:20.839Z,96265.81
2019-05-26T18:27:52.678Z,96264.22
2019-05-26T18:30:25.292Z,96260.92
2019-05-26T18:32:57.049Z,96258.28
2019-05-26T18:35:28.950Z,96254.92
2019-05-26T18:38:00.794Z,96257.15
2019-05-26T18:40:32.631Z,96256.64
2019-05-26T18:43:04.404Z,96257.16
2019-05-26T18:45:36.242Z,96256.36
2019-05-26T18:48:08.229Z,96255.05
2019-05-26T18:50:40.130Z,96258.86
2019-05-26T18:53:12.058Z,96253.70
2019-05-26T18:55:43.829Z,96257.28
2019-05-26T18:58:15.677Z,96253.36
2019-05-26T19:00:47.441Z,96255.86
2019-05-26T19:03:19.226Z,96254.41
2019-05-26T19:05:50.989Z,96250.72
2019-05-26T19:08:22.768Z,96251.48
2019-05-26T19:10:54.535Z,96256.60
2019-05-26T19:13:26.312Z,96257.93
2019-05-26T19:15:58.074Z,96258.31
2019-05-26T19:18:29.858Z,96255.80
2019-05-26T19:21:03.341Z,96262.03
2019-05-26T19:23:36.181Z,96258.37
2019-05-26T19:26:08.023Z,96265.58
2019-05-26T19:28:40.759Z,96267.63
2019-05-26T19:31:12.525Z,96270.84
2019-05-26T19:33:44.304Z,96264.36
2019-05-26T19:36:16.151Z,96269.74
2019-05-26T19:38:47.930Z,96275.17
2019-05-26T19:41:19.697Z,96272.86
2019-05-26T19:43:52.490Z,96275.48
2019-05-26T19:46:24.927Z,96277.36
2019-05-26T19:48:56.721Z,96275.25
2019-05-26T19:51:28.494Z,96281.68
2019-05-26T19:54:00.278Z,96287.69
2019-05-26T19:56:32.048Z,96286.27
2019-05-26T19:59:03.828Z,96290.42
2019-05-26T20:01:35.600Z,96295.23
2019-05-26T20:04:07.392Z,96296.77
2019-05-26T20:06:39.158Z,96293.31
2019-05-26T20:09:11.418Z,96292.70
2019-05-26T20:11:43.194Z,96288.92
2019-05-26T20:14:14.978Z,96288.50
2019-05-26T20:16:46.746Z,96286.27
2019-05-26T20:19:18.605Z,96286.47
2019-05-26T20:21:50.375Z,96294.73
2019-05-26T20:24:22.164Z,96289.03
2019-05-26T20:26:54.253Z,96287.78
2019-05-26T20:29:26.032Z,96287.47
2019-05-26T20:31:57.799Z,96284.82
2019-05-26T20:34:30.559Z,96284.12
2019-05-26T20:37:02.371Z,96283.61
2019-05-26T20:39:34.108Z,96281.66
2019-05-26T20:42:06.498Z,96283.79
2019-05-26T20:44:38.429Z,96280.55
2019-05-26T20:47:11.398Z,96278.78
2019-05-26T20:49:45.727Z,96287.33
2019-05-26T20:52:17.017Z,96287.33
2019-05-26T20:54:48.790Z,96288.94
2019-05-26T20:57:20.561Z,96283.39
2019-05-26T20:59:52.342Z,96279.40
2019-05-26T21:02:24.117Z,96274.01
2019-05-26T21:04:55.901Z,96278.81
2019-05-26T21:07:28.415Z,96283.08
2019-05-26T21:10:00.300Z,96282.89
2019-05-26T21:12:32.031Z,96285.80
2019-05-26T21:15:04.076Z,96288.58
2019-05-26T21:17:35.918Z,96283.13
2019-05-26T21:20:10.305Z,96285.05
2019-05-26T21:22:42.073Z,96284.52
2019-05-26T21:25:14.192Z,96281.55
2019-05-26T21:27:45.966Z,96279.69
2019-05-26T21:30:19.142Z,96285.14
2019-05-26T21:32:50.941Z,96283.38
2019-05-26T21:35:23.006Z,96277.28
2019-05-26T21:37:54.773Z,96275.02
2019-05-26T21:40:26.551Z,96283.78
2019-05-26T21:42:58.324Z,96282.73
2019-05-26T21:45:30.106Z,96277.81
2019-05-26T21:48:01.882Z,96275.53
2019-05-26T21:50:33.658Z,96274.98
2019-05-26T21:53:05.497Z,96280.55
2019-05-26T21:55:37.279Z,96283.02
2019-05-26T21:58:09.049Z,96282.73
2019-05-26T22:00:42.855Z,96276.38
2019-05-26T22:03:14.705Z,96281.32
2019-05-26T22:05:46.484Z,96283.78
2019-05-26T22:08:19.254Z,96281.48
2019-05-26T22:10:51.034Z,96282.95
2019-05-26T22:13:24.437Z,96281.80
2019-05-26T22:15:56.294Z,96278.08
2019-05-26T22:18:28.063Z,96275.29
2019-05-26T22:20:59.851Z,96273.65
2019-05-26T22:23:31.622Z,96268.13
2019-05-26T22:26:03.402Z,96280.28
2019-05-26T22:28:35.169Z,96277.70
2019-05-26T22:31:06.947Z,96274.95
2019-05-26T22:33:38.720Z,96274.56
2019-05-26T22:36:10.933Z,96269.47
2019-05-26T22:38:43.008Z,96279.08
2019-05-26T22:41:14.793Z,96272.83
2019-05-26T22:43:46.564Z,96277.36
2019-05-26T22:46:18.349Z,96265.90
2019-05-26T22:48:50.120Z,96264.41
2019-05-26T22:51:21.908Z,96263.00
2019-05-26T22:53:53.989Z,96259.36
2019-05-26T22:56:25.766Z,96260.22
2019-05-26T22:58:57.613Z,96260.97
2019-05-26T23:01:29.465Z,96255.04
2019-05-26T23:04:03.245Z,96259.89
2019-05-26T23:06:34.783Z,96253.92
2019-05-26T23:09:07.494Z,96260.63
2019-05-26T23:11:39.278Z,96256.20
2019-05-26T23:14:11.056Z,96250.48
2019-05-26T23:16:42.840Z,96251.87
2019-05-26T23:19:19.251Z,96247.44
2019-05-26T23:21:48.368Z,96253.61
2019-05-26T23:24:20.143Z,96249.97
2019-05-26T23:26:51.924Z,96246.69
2019-05-26T23:29:23.700Z,96247.59
2019-05-26T23:31:55.519Z,96253.81
2019-05-26T23:34:27.286Z,96251.50
2019-05-26T23:36:59.135Z,96252.95
2019-05-26T23:39:30.903Z,96252.72
2019-05-26T23:42:02.687Z,96247.20
2019-05-26T23:44:34.460Z,96247.40
2019-05-26T23:47:06.236Z,96242.30
2019-05-26T23:49:38.189Z,96239.83
2019-05-26T23:52:11.218Z,96239.83
2019-05-26T23:54:42.988Z,96237.67
2019-05-26T23:57:14.768Z,96235.09
2019-05-26T23:59:46.544Z,96229.05
